Time;durP1;ratioP1;P1;durP2;ratioP2;P2;SDS_P1;SDS_P2;PMS_P1;PMS_P2;Temp;Humidity;BMP_temperature;BMP_pressure;BME280_temperature;BME280_humidity;BME280_pressure;Samples;Min_cycle;Max_cycle;Signal;HPM_P1;HPM_P2
2022/02/15 00:00:02;;;;;;;;;;;;;;;8.05;100.00;98011.41;5087182;28;19943;-61
2022/02/15 00:02:28;;;;;;;;;;;;;;;8.05;100.00;98004.59;5085510;28;20089;-62
2022/02/15 00:04:53;;;;;;;;;;;;;;;8.23;100.00;98005.59;5087150;28;20305;-61
2022/02/15 00:07:19;;;;;;;;;;;;;;;8.51;100.00;98013.09;5087267;28;19916;-61
2022/02/15 00:09:44;;;;;;;;;;;;;;;7.85;100.00;98015.59;5085641;28;19963;-61
2022/02/15 00:12:09;;;;;;;;;;;;;;;8.08;100.00;98008.75;5086643;28;19972;-61
2022/02/15 00:14:35;;;;;;;;;;;;;;;8.17;100.00;98016.09;5067379;28;19922;-62
2022/02/15 00:17:01;;;;;;;;;;;;;;;8.12;100.00;98015.44;5085761;28;20381;-62
2022/02/15 00:19:27;;;;;;;;;;;;;;;8.20;100.00;98018.53;5086304;28;19924;-61
2022/02/15 00:21:52;;;;;;;;;;;;;;;8.36;100.00;98024.75;5086554;28;19943;-62
2022/02/15 00:24:18;;;;;;;;;;;;;;;8.45;100.00;98027.91;5085765;28;19916;-60
2022/02/15 00:26:43;;;;;;;;;;;;;;;8.30;100.00;98014.75;5084229;28;19924;-61
2022/02/15 00:29:08;;;;;;;;;;;;;;;8.55;100.00;98008.66;5086401;28;20018;-62
2022/02/15 00:31:33;;;;;;;;;;;;;;;8.10;100.00;98012.94;5085096;28;19939;-62
2022/02/15 00:33:59;;;;;;;;;;;;;;;8.24;100.00;98009.84;5085277;28;20309;-62
2022/02/15 00:36:24;;;;;;;;;;;;;;;8.40;100.00;98016.94;5086050;28;19959;-62
2022/02/15 00:38:49;;;;;;;;;;;;;;;8.61;100.00;98013.56;5085591;28;19999;-61
2022/02/15 00:41:14;;;;;;;;;;;;;;;8.66;100.00;98016.78;5086336;28;19927;-61
2022/02/15 00:43:40;;;;;;;;;;;;;;;8.64;100.00;98028.81;5085519;28;19974;-61
2022/02/15 00:46:05;;;;;;;;;;;;;;;8.85;100.00;98023.72;5084364;28;19926;-61
2022/02/15 00:48:30;;;;;;;;;;;;;;;8.86;100.00;98021.09;5084714;28;19927;-62
2022/02/15 00:50:56;;;;;;;;;;;;;;;8.43;100.00;98024.56;5085013;28;19996;-60
2022/02/15 00:53:21;;;;;;;;;;;;;;;8.36;100.00;98024.75;5084055;28;19927;-62
2022/02/15 00:55:46;;;;;;;;;;;;;;;8.15;100.00;98028.16;5085092;28;19916;-60
2022/02/15 00:58:12;;;;;;;;;;;;;;;8.63;100.00;98029.72;5085146;28;20364;-61
2022/02/15 01:00:37;;;;;;;;;;;;;;;8.31;100.00;98026.66;5065095;28;20457;-61
2022/02/15 01:03:02;;;;;;;;;;;;;;;8.90;100.00;98034.66;5066017;28;19927;-61
2022/02/15 01:05:28;;;;;;;;;;;;;;;8.14;100.00;98032.44;5083901;28;19923;-62
2022/02/15 01:07:53;;;;;;;;;;;;;;;7.89;100.00;98039.34;5084800;28;19923;-62
2022/02/15 01:10:20;;;;;;;;;;;;;;;8.13;100.00;98037.63;5084501;28;19924;-62
2022/02/15 01:12:45;;;;;;;;;;;;;;;7.58;100.00;98045.59;5084464;28;19924;-62
2022/02/15 01:15:11;;;;;;;;;;;;;;;8.24;100.00;98052.63;5085334;28;20116;-61
2022/02/15 01:17:37;;;;;;;;;;;;;;;8.01;100.00;98049.19;5084225;28;19916;-61
2022/02/15 01:20:02;;;;;;;;;;;;;;;7.77;100.00;98061.16;5084408;28;20527;-61
2022/02/15 01:22:28;;;;;;;;;;;;;;;8.42;100.00;98053.69;5083079;28;20018;-60
2022/02/15 01:24:53;;;;;;;;;;;;;;;8.17;100.00;98055.41;5085529;28;19927;-61
2022/02/15 01:27:18;;;;;;;;;;;;;;;8.35;100.00;98046.19;5084466;28;20488;-61
2022/02/15 01:29:43;;;;;;;;;;;;;;;8.28;100.00;98047.31;5085158;28;19920;-60
2022/02/15 01:32:09;;;;;;;;;;;;;;;8.60;100.00;98037.56;5083941;28;20270;-60
2022/02/15 01:34:34;;;;;;;;;;;;;;;7.83;100.00;98039.59;5084370;28;19963;-59
2022/02/15 01:36:59;;;;;;;;;;;;;;;8.03;100.00;98041.41;5083801;28;20294;-61
2022/02/15 01:39:24;;;;;;;;;;;;;;;7.83;100.00;98045.56;5084050;28;20057;-62
2022/02/15 01:41:50;;;;;;;;;;;;;;;8.02;100.00;98047.44;5083848;28;19961;-60
2022/02/15 01:44:18;;;;;;;;;;;;;;;8.38;100.00;98056.31;5084315;28;20012;-61
2022/02/15 01:46:43;;;;;;;;;;;;;;;8.01;100.00;98048.34;5082918;28;19967;-61
2022/02/15 01:49:09;;;;;;;;;;;;;;;8.33;100.00;98059.97;5083196;28;20032;-60
2022/02/15 01:51:34;;;;;;;;;;;;;;;8.06;100.00;98051.56;5082113;28;20335;-61
2022/02/15 01:53:59;;;;;;;;;;;;;;;8.10;100.00;98064.22;5083260;28;19947;-61
2022/02/15 01:56:26;;;;;;;;;;;;;;;7.84;100.00;98062.59;5082568;28;19920;-62
2022/02/15 01:58:52;;;;;;;;;;;;;;;7.35;100.00;98072.00;5063997;28;19927;-60
2022/02/15 02:01:17;;;;;;;;;;;;;;;7.74;100.00;98074.06;5063750;28;19920;-62
2022/02/15 02:03:43;;;;;;;;;;;;;;;7.37;100.00;98082.19;5082523;28;19923;-61
2022/02/15 02:06:08;;;;;;;;;;;;;;;8.40;100.00;98079.38;5083710;28;20297;-62
2022/02/15 02:08:34;;;;;;;;;;;;;;;8.18;100.00;98076.75;5080512;28;20319;-61
2022/02/15 02:11:00;;;;;;;;;;;;;;;7.73;100.00;98072.38;5082411;28;19916;-61
2022/02/15 02:13:26;;;;;;;;;;;;;;;7.60;100.00;98073.75;5081911;28;19924;-61
2022/02/15 02:15:51;;;;;;;;;;;;;;;7.85;100.00;98079.66;5082298;28;19920;-61
2022/02/15 02:18:17;;;;;;;;;;;;;;;7.87;100.00;98080.44;5063934;28;19971;-60
2022/02/15 02:20:42;;;;;;;;;;;;;;;8.13;100.00;98083.78;5083438;28;19916;-62
2022/02/15 02:23:11;;;;;;;;;;;;;;;7.64;100.00;98081.25;5082991;28;19916;-61
2022/02/15 02:25:36;;;;;;;;;;;;;;;7.54;100.00;98090.13;5083397;28;20097;-61
2022/02/15 02:28:02;;;;;;;;;;;;;;;7.92;100.00;98088.81;5081665;28;20085;-61
2022/02/15 02:30:27;;;;;;;;;;;;;;;7.85;100.00;98100.16;5082720;28;19922;-60
2022/02/15 02:32:52;;;;;;;;;;;;;;;7.96;100.00;98094.66;5081910;28;19967;-61
2022/02/15 02:35:18;;;;;;;;;;;;;;;8.11;100.00;98101.78;5081052;28;19916;-62
2022/02/15 02:37:44;;;;;;;;;;;;;;;7.70;100.00;98101.53;5081954;28;19931;-61
2022/02/15 02:40:09;;;;;;;;;;;;;;;7.72;100.00;98096.34;5081481;28;19923;-61
2022/02/15 02:42:35;;;;;;;;;;;;;;;7.41;100.00;98100.00;5064160;28;19951;-62
2022/02/15 02:45:03;;;;;;;;;;;;;;;7.74;100.00;98100.53;5081481;28;19920;-61
2022/02/15 02:47:28;;;;;;;;;;;;;;;7.42;100.00;98117.00;5081476;28;19917;-62
2022/02/15 02:49:53;;;;;;;;;;;;;;;7.57;100.00;98114.81;5080843;28;20316;-61
2022/02/15 02:52:19;;;;;;;;;;;;;;;7.69;100.00;98114.41;5082738;28;20373;-61
2022/02/15 02:54:44;;;;;;;;;;;;;;;7.67;100.00;98126.44;5081670;28;20044;-60
2022/02/15 02:57:12;;;;;;;;;;;;;;;7.41;100.00;98123.03;5081328;28;20280;-61
2022/02/15 02:59:38;;;;;;;;;;;;;;;7.21;100.00;98128.81;5080723;28;19920;-62
2022/02/15 03:02:03;;;;;;;;;;;;;;;7.50;100.00;98120.16;5081313;28;20028;-62
2022/02/15 03:04:29;;;;;;;;;;;;;;;7.74;100.00;98117.66;5082493;28;19916;-61
2022/02/15 03:06:54;;;;;;;;;;;;;;;7.74;100.00;98127.91;5081405;28;19916;-61
2022/02/15 03:09:19;;;;;;;;;;;;;;;7.68;100.00;98128.09;5080728;28;20172;-61
2022/02/15 03:11:45;;;;;;;;;;;;;;;8.26;100.00;98120.91;5080611;28;19969;-61
2022/02/15 03:14:10;;;;;;;;;;;;;;;8.02;100.00;98119.22;5045474;28;19920;-61
2022/02/15 03:16:35;;;;;;;;;;;;;;;7.66;100.00;98124.75;5081217;28;20003;-61
2022/02/15 03:19:01;;;;;;;;;;;;;;;8.33;100.00;98117.22;5080410;28;19974;-61
2022/02/15 03:21:27;;;;;;;;;;;;;;;8.11;100.00;98116.34;5081010;28;19924;-61
2022/02/15 03:23:52;;;;;;;;;;;;;;;8.17;100.00;98116.97;5082162;28;20251;-61
2022/02/15 03:26:17;;;;;;;;;;;;;;;8.12;100.00;98118.84;5082200;28;19962;-62
2022/02/15 03:28:43;;;;;;;;;;;;;;;7.86;100.00;98124.06;5077402;28;19923;-62
2022/02/15 03:31:08;;;;;;;;;;;;;;;8.12;100.00;98123.16;5081261;28;19916;-62
2022/02/15 03:33:33;;;;;;;;;;;;;;;8.27;100.00;98124.31;5081194;28;19920;-61
2022/02/15 03:35:59;;;;;;;;;;;;;;;8.01;100.00;98127.84;5063554;28;19913;-61
2022/02/15 03:38:24;;;;;;;;;;;;;;;7.94;100.00;98130.59;5082229;28;20243;-62
2022/02/15 03:43:33;;;;;;;;;;;;;;;8.38;100.00;98135.84;5082211;28;19981;-61
2022/02/15 03:45:59;;;;;;;;;;;;;;;8.51;100.00;98143.13;5082217;28;19923;-61
2022/02/15 03:48:24;;;;;;;;;;;;;;;8.45;100.00;98151.88;5081141;28;19927;-61
2022/02/15 03:50:49;;;;;;;;;;;;;;;8.45;100.00;98158.75;5081441;28;19920;-62
2022/02/15 03:53:17;;;;;;;;;;;;;;;8.45;100.00;98162.16;5080394;28;20054;-61
2022/02/15 03:55:43;;;;;;;;;;;;;;;8.16;100.00;98163.16;5079684;28;19923;-62
2022/02/15 03:58:08;;;;;;;;;;;;;;;8.17;100.00;98164.84;5078196;28;19924;-60
2022/02/15 04:00:34;;;;;;;;;;;;;;;8.18;100.00;98180.16;5079323;28;19927;-61
2022/02/15 04:02:59;;;;;;;;;;;;;;;7.94;100.00;98170.78;5079061;28;20180;-61
2022/02/15 04:05:24;;;;;;;;;;;;;;;7.85;100.00;98174.50;5079511;28;19916;-61
2022/02/15 04:07:50;;;;;;;;;;;;;;;8.18;100.00;98180.16;5078960;28;19916;-60
2022/02/15 04:10:17;;;;;;;;;;;;;;;8.00;100.00;98185.13;5079993;28;20014;-60
2022/02/15 04:12:42;;;;;;;;;;;;;;;8.24;100.00;98184.25;5079766;28;20252;-61
2022/02/15 04:15:08;;;;;;;;;;;;;;;7.77;100.00;98191.03;5078003;28;20001;-61
2022/02/15 04:17:33;;;;;;;;;;;;;;;8.10;100.00;98187.31;5080071;28;19955;-62
2022/02/15 04:19:58;;;;;;;;;;;;;;;8.21;100.00;98191.22;5077850;28;20372;-62
2022/02/15 04:22:24;;;;;;;;;;;;;;;8.03;100.00;98185.00;5078240;28;19916;-61
2022/02/15 04:24:49;;;;;;;;;;;;;;;8.34;100.00;98188.16;5078912;28;19916;-60
2022/02/15 04:27:15;;;;;;;;;;;;;;;8.53;100.00;98192.66;5080209;28;20281;-61
2022/02/15 04:29:41;;;;;;;;;;;;;;;7.80;100.00;98191.78;5081568;28;19916;-62
2022/02/15 04:32:06;;;;;;;;;;;;;;;7.83;100.00;98191.66;5084155;28;19927;-61
2022/02/15 04:34:32;;;;;;;;;;;;;;;7.88;100.00;98197.47;5083429;28;19931;-61
2022/02/15 04:36:57;;;;;;;;;;;;;;;8.10;100.00;98210.38;5083420;28;20377;-61
2022/02/15 04:39:22;;;;;;;;;;;;;;;7.57;100.00;98212.19;5064481;28;20208;-61
2022/02/15 04:41:47;;;;;;;;;;;;;;;7.39;100.00;98223.84;5082539;28;19924;-61
2022/02/15 04:44:13;;;;;;;;;;;;;;;7.44;100.00;98225.41;5082329;28;19931;-60
2022/02/15 04:46:38;;;;;;;;;;;;;;;7.37;100.00;98243.53;5082940;28;20044;-61
2022/02/15 04:49:03;;;;;;;;;;;;;;;7.23;100.00;98244.84;5081879;28;19932;-59
2022/02/15 04:51:29;;;;;;;;;;;;;;;7.20;100.00;98256.88;5081522;28;19938;-61
2022/02/15 04:53:54;;;;;;;;;;;;;;;7.18;100.00;98267.16;5082743;28;19927;-60
2022/02/15 04:56:19;;;;;;;;;;;;;;;7.33;100.00;98265.88;5063224;28;20281;-60
2022/02/15 04:58:44;;;;;;;;;;;;;;;7.19;100.00;98270.59;5063272;28;19975;-59
2022/02/15 05:01:14;;;;;;;;;;;;;;;7.00;100.00;98281.38;5083647;28;19968;-61
2022/02/15 05:03:40;;;;;;;;;;;;;;;6.89;100.00;98297.03;5081427;28;20396;-61
2022/02/15 05:06:05;;;;;;;;;;;;;;;6.94;100.00;98304.59;5083014;28;19920;-61
2022/02/15 05:08:30;;;;;;;;;;;;;;;6.77;100.00;98301.66;5079854;28;19920;-61
2022/02/15 05:10:56;;;;;;;;;;;;;;;7.05;100.00;98302.56;5080981;28;19920;-60
2022/02/15 05:13:21;;;;;;;;;;;;;;;6.99;100.00;98297.59;5082365;28;20023;-60
2022/02/15 05:15:46;;;;;;;;;;;;;;;7.05;100.00;98297.44;5082486;28;19962;-60
2022/02/15 05:18:12;;;;;;;;;;;;;;;7.23;100.00;98288.38;5083393;28;20015;-60
2022/02/15 05:20:37;;;;;;;;;;;;;;;7.39;100.00;98287.88;5080585;28;20278;-59
2022/02/15 05:23:05;;;;;;;;;;;;;;;7.65;100.00;98277.69;5082983;28;19916;-60
2022/02/15 05:34:46;;;;;;;;;;;;;;;7.67;100.00;98278.47;5083550;28;20551;-59
2022/02/15 05:37:11;;;;;;;;;;;;;;;7.51;100.00;98288.34;5082541;28;20431;-59
2022/02/15 05:39:37;;;;;;;;;;;;;;;7.67;100.00;98283.59;5081746;28;19916;-60
2022/02/15 05:42:02;;;;;;;;;;;;;;;7.37;100.00;98287.97;5083071;28;19912;-61
2022/02/15 05:44:27;;;;;;;;;;;;;;;7.51;100.00;98288.34;5080956;28;19927;-61
2022/02/15 05:46:53;;;;;;;;;;;;;;;7.88;100.00;98283.78;5082858;28;19942;-61
2022/02/15 05:49:18;;;;;;;;;;;;;;;7.99;100.00;98286.00;5082589;28;19916;-61
2022/02/15 05:51:46;;;;;;;;;;;;;;;7.71;100.00;98284.34;5082221;28;20022;-61
2022/02/15 05:54:14;;;;;;;;;;;;;;;7.11;100.00;98293.84;5082589;28;19927;-61
2022/02/15 05:56:40;;;;;;;;;;;;;;;7.09;100.00;98306.72;5078406;28;20061;-61
2022/02/15 05:59:11;;;;;;;;;;;;;;;7.04;100.00;98316.22;5062274;28;20423;-62
2022/02/15 06:01:36;;;;;;;;;;;;;;;7.12;100.00;98318.56;5081998;28;20007;-60
2022/02/15 06:04:10;;;;;;;;;;;;;;;7.49;100.00;98318.31;5081911;28;20819;-60
2022/02/15 06:06:36;;;;;;;;;;;;;;;7.52;100.00;98330.19;5082736;28;19924;-61
2022/02/15 06:18:27;;;;;;;;;;;;;;;7.68;100.00;98333.13;4999091;28;20400;-60
2022/02/15 06:20:52;;;;;;;;;;;;;;;7.99;100.00;98332.16;4998098;28;19917;-61
2022/02/15 06:23:18;;;;;;;;;;;;;;;8.36;100.00;98336.91;4995565;28;19921;-61
2022/02/15 06:25:43;;;;;;;;;;;;;;;7.87;100.00;98336.78;4999656;28;19926;-62
2022/02/15 06:34:24;;;;;;;;;;;;;;;8.36;100.00;98335.16;4999822;28;20015;-61
2022/02/15 06:36:50;;;;;;;;;;;;;;;8.00;100.00;98338.94;4999923;28;20327;-60
2022/02/15 06:39:15;;;;;;;;;;;;;;;8.03;100.00;98344.84;4998898;28;20016;-60
2022/02/15 06:41:43;;;;;;;;;;;;;;;7.73;100.00;98352.59;4999089;28;20339;-61
2022/02/15 06:44:08;;;;;;;;;;;;;;;7.51;100.00;98352.41;4993464;28;20474;-61
2022/02/15 06:46:35;;;;;;;;;;;;;;;7.78;100.00;98359.28;4983639;28;20012;-61
2022/02/15 06:49:00;;;;;;;;;;;;;;;8.38;100.00;98361.63;5061922;28;19921;-61
2022/02/15 06:51:28;;;;;;;;;;;;;;;7.92;100.00;98362.28;5060986;28;19991;-61
2022/02/15 06:53:54;;;;;;;;;;;;;;;7.98;100.00;98367.19;5043752;28;19986;-61
2022/02/15 06:56:19;;;;;;;;;;;;;;;7.96;100.00;98366.44;5060297;28;19913;-61
2022/02/15 06:58:44;;;;;;;;;;;;;;;7.72;100.00;98370.59;5061724;28;20504;-61
2022/02/15 07:01:10;;;;;;;;;;;;;;;7.45;100.00;98380.75;5061140;28;20278;-61
2022/02/15 07:03:38;;;;;;;;;;;;;;;7.88;100.00;98376.91;5043427;28;19999;-62
2022/02/15 07:06:08;;;;;;;;;;;;;;;7.75;100.00;98394.41;5043773;28;19973;-60
2022/02/15 07:08:34;;;;;;;;;;;;;;;7.68;100.00;98399.75;5061312;28;19924;-61
2022/02/15 07:10:59;;;;;;;;;;;;;;;7.43;100.00;98405.59;5062115;28;20299;-61
2022/02/15 07:13:27;;;;;;;;;;;;;;;7.53;100.00;98391.63;5061900;28;19920;-60
2022/02/15 07:15:53;;;;;;;;;;;;;;;7.81;100.00;98389.97;5061056;28;19916;-61
2022/02/15 07:18:19;;;;;;;;;;;;;;;8.10;100.00;98392.47;5061695;28;19916;-60
2022/02/15 07:20:44;;;;;;;;;;;;;;;7.82;100.00;98396.75;5062034;28;19967;-61
2022/02/15 07:23:25;;;;;;;;;;;;;;;7.22;100.00;98401.09;5062143;28;20050;-60
2022/02/15 07:35:01;;;;;;;;;;;;;;;8.04;100.00;98413.16;5061566;28;19933;-62
2022/02/15 07:53:25;;;;;;;;;;;;;;;8.05;100.00;98429.38;5081757;28;20010;-62
2022/02/15 07:59:01;;;;;;;;;;;;;;;7.71;100.00;98433.81;5080474;28;19919;-59
2022/02/15 08:01:30;;;;;;;;;;;;;;;7.77;100.00;98443.03;5082342;28;19916;-61
2022/02/15 08:04:23;;;;;;;;;;;;;;;7.93;100.00;98436.56;5085942;28;19942;-62
2022/02/15 08:13:33;;;;;;;;;;;;;;;7.81;100.00;98439.50;5084935;28;19963;-60
2022/02/15 08:19:01;;;;;;;;;;;;;;;8.90;100.00;98441.19;5084412;28;19919;-60
2022/02/15 08:21:27;;;;;;;;;;;;;;;8.85;100.00;98437.09;5065306;28;19912;-60
2022/02/15 08:23:52;;;;;;;;;;;;;;;9.52;100.00;98437.28;5084492;28;19912;-60
2022/02/15 08:26:19;;;;;;;;;;;;;;;9.50;100.00;98431.34;5084429;28;19960;-61
2022/02/15 08:28:45;;;;;;;;;;;;;;;9.72;100.00;98440.88;5084172;28;19920;-61
2022/02/15 08:31:11;;;;;;;;;;;;;;;9.40;100.00;98436.00;5084498;28;19916;-61
2022/02/15 08:33:36;;;;;;;;;;;;;;;9.16;100.00;98437.72;5084186;28;19916;-61
2022/02/15 08:36:03;;;;;;;;;;;;;;;9.15;100.00;98446.31;5084725;28;20277;-61
2022/02/15 08:38:33;;;;;;;;;;;;;;;8.53;100.00;98451.84;5084021;28;20073;-61
2022/02/15 08:40:58;;;;;;;;;;;;;;;8.60;100.00;98455.91;5084251;28;19912;-61
2022/02/15 08:43:26;;;;;;;;;;;;;;;8.36;100.00;98460.06;5084180;28;20289;-60
2022/02/15 08:45:52;;;;;;;;;;;;;;;8.42;100.00;98470.16;5084173;28;20818;-60
2022/02/15 08:48:17;;;;;;;;;;;;;;;8.21;100.00;98458.81;5084155;28;19920;-59
2022/02/15 08:50:42;;;;;;;;;;;;;;;8.16;100.00;98468.38;5083657;28;20324;-60
2022/02/15 08:53:08;;;;;;;;;;;;;;;8.21;100.00;98476.78;5083825;28;19928;-58
2022/02/15 08:55:33;;;;;;;;;;;;;;;8.05;100.00;98475.53;5083817;28;19920;-61
2022/02/15 08:57:58;;;;;;;;;;;;;;;8.43;100.00;98486.38;5083746;28;19916;-60
2022/02/15 09:00:24;;;;;;;;;;;;;;;8.36;100.00;98486.53;5084369;28;19916;-61
2022/02/15 09:02:49;;;;;;;;;;;;;;;8.38;100.00;98491.63;5084084;28;19912;-59
2022/02/15 09:05:14;;;;;;;;;;;;;;;8.01;100.00;98489.38;5083736;28;20290;-61
2022/02/15 09:07:40;;;;;;;;;;;;;;;8.54;100.00;98499.72;5084031;28;19912;-60
2022/02/15 09:10:05;;;;;;;;;;;;;;;8.41;100.00;98493.28;5083584;28;19912;-60
2022/02/15 09:12:31;;;;;;;;;;;;;;;8.41;100.00;98499.25;5083268;28;20335;-61
2022/02/15 09:14:56;;;;;;;;;;;;;;;8.73;100.00;98495.66;5082329;28;19915;-61
2022/02/15 09:17:21;;;;;;;;;;;;;;;8.69;100.00;98488.97;5083569;28;19941;-62
2022/02/15 09:19:46;;;;;;;;;;;;;;;9.07;100.00;98486.84;5083441;28;19916;-61
2022/02/15 09:22:12;;;;;;;;;;;;;;;8.82;100.00;98489.38;5082928;28;19943;-61
2022/02/15 09:24:37;;;;;;;;;;;;;;;8.76;100.00;98485.31;5082878;28;19955;-61
2022/02/15 09:27:02;;;;;;;;;;;;;;;8.94;100.00;98488.13;5083107;28;19998;-59
2022/02/15 09:29:28;;;;;;;;;;;;;;;8.36;100.00;98483.97;5082655;28;19912;-60
2022/02/15 09:31:53;;;;;;;;;;;;;;;8.07;100.00;98489.16;5082765;28;19923;-61
2022/02/15 09:34:22;;;;;;;;;;;;;;;8.53;100.00;98487.75;5083250;28;19923;-60
2022/02/15 09:36:48;;;;;;;;;;;;;;;8.20;100.00;98490.47;5083135;28;19912;-61
2022/02/15 09:39:13;;;;;;;;;;;;;;;8.35;100.00;98490.00;5082677;28;19923;-61
2022/02/15 09:41:39;;;;;;;;;;;;;;;8.22;100.00;98498.97;5082513;28;19961;-60
2022/02/15 09:44:05;;;;;;;;;;;;;;;8.27;100.00;98497.09;5063943;28;19920;-61
2022/02/15 09:46:30;;;;;;;;;;;;;;;9.06;100.00;98492.03;5082527;28;20456;-61
2022/02/15 09:48:56;;;;;;;;;;;;;;;8.29;100.00;98495.31;5082300;28;19916;-62
2022/02/15 09:51:25;;;;;;;;;;;;;;;8.56;100.00;98503.91;5082538;28;19916;-61
2022/02/15 09:53:50;;;;;;;;;;;;;;;8.84;100.00;98491.91;5082137;28;20449;-60
2022/02/15 09:56:15;;;;;;;;;;;;;;;9.21;100.00;98487.22;5081797;28;19920;-61
2022/02/15 09:58:41;;;;;;;;;;;;;;;8.65;100.00;98491.69;5082109;28;19912;-61
2022/02/15 10:01:09;;;;;;;;;;;;;;;8.90;100.00;98496.84;5063850;28;19959;-61
2022/02/15 10:03:34;;;;;;;;;;;;;;;8.76;100.00;98500.72;5062939;28;20962;-61
2022/02/15 10:06:02;;;;;;;;;;;;;;;9.11;100.00;98495.28;5082231;28;19916;-60
2022/02/15 10:08:28;;;;;;;;;;;;;;;8.71;100.00;98497.47;5082362;28;19918;-60
2022/02/15 10:10:53;;;;;;;;;;;;;;;8.49;100.00;98502.44;5081495;28;19920;-61
2022/02/15 10:13:19;;;;;;;;;;;;;;;8.42;100.00;98511.22;5063043;28;20473;-61
2022/02/15 10:15:44;;;;;;;;;;;;;;;8.87;100.00;98502.06;5063589;28;19916;-61
2022/02/15 10:18:11;;;;;;;;;;;;;;;8.89;100.00;98500.31;5081864;28;19968;-61
2022/02/15 10:20:37;;;;;;;;;;;;;;;8.83;100.00;98509.06;5063416;28;19912;-61
2022/02/15 10:23:15;;;;;;;;;;;;;;;9.46;100.00;98504.31;5081789;28;19912;-61
2022/02/15 10:25:40;;;;;;;;;;;;;;;9.42;100.00;98506.19;5081596;28;19923;-61
2022/02/15 10:28:12;;;;;;;;;;;;;;;9.74;100.00;98498.19;5081353;28;19916;-61
2022/02/15 10:30:44;;;;;;;;;;;;;;;10.24;100.00;98500.59;5062930;28;19916;-62
2022/02/15 10:33:10;;;;;;;;;;;;;;;10.21;100.00;98498.16;5082193;28;20016;-61
2022/02/15 10:35:35;;;;;;;;;;;;;;;10.12;100.00;98498.50;5081274;28;20425;-61
2022/02/15 10:38:03;;;;;;;;;;;;;;;9.51;100.00;98496.44;5062546;28;19916;-62
2022/02/15 10:40:29;;;;;;;;;;;;;;;9.44;100.00;98498.41;5082350;28;20401;-61
2022/02/15 10:42:54;;;;;;;;;;;;;;;9.82;100.00;98499.59;5081957;28;19923;-61
2022/02/15 10:45:19;;;;;;;;;;;;;;;9.13;100.00;98504.63;5082132;28;19924;-61
2022/02/15 10:47:46;;;;;;;;;;;;;;;9.92;100.00;98500.09;5081904;28;20394;-62
2022/02/15 10:50:15;;;;;;;;;;;;;;;9.86;100.00;98505.47;5081563;28;19966;-61
2022/02/15 10:52:40;;;;;;;;;;;;;;;9.72;100.00;98507.72;5081286;28;19934;-60
2022/02/15 10:55:06;;;;;;;;;;;;;;;9.63;100.00;98504.56;5082080;28;19920;-61
2022/02/15 10:57:32;;;;;;;;;;;;;;;9.26;100.00;98514.47;5081932;28;19962;-61
2022/02/15 10:59:58;;;;;;;;;;;;;;;9.56;100.00;98513.41;5082074;28;19912;-62
2022/02/15 11:02:26;;;;;;;;;;;;;;;9.19;100.00;98519.84;5076579;28;20370;-62
2022/02/15 11:04:52;;;;;;;;;;;;;;;9.77;100.00;98518.66;5062804;28;19966;-61
2022/02/15 11:07:19;;;;;;;;;;;;;;;8.95;100.00;98526.63;5081548;28;19916;-61
2022/02/15 11:10:02;;;;;;;;;;;;;;;8.38;100.00;98535.25;5082305;28;19967;-61
2022/02/15 11:15:31;;;;;;;;;;;;;;;7.34;100.00;98556.97;5079906;28;20012;-62
2022/02/15 11:17:58;;;;;;;;;;;;;;;7.66;100.00;98560.41;5082218;28;20270;-61
2022/02/15 11:20:27;;;;;;;;;;;;;;;9.29;100.00;98560.63;5081323;28;19920;-62
2022/02/15 11:22:53;;;;;;;;;;;;;;;9.10;100.00;98548.41;5081710;28;19912;-62
2022/02/15 11:25:32;;;;;;;;;;;;;;;8.47;100.00;98554.69;5062318;28;19969;-61
2022/02/15 11:28:20;;;;;;;;;;;;;;;8.83;100.00;98547.56;5080898;28;19916;-61
2022/02/15 11:30:51;;;;;;;;;;;;;;;8.84;100.00;98553.53;5081973;28;20508;-65
2022/02/15 11:33:23;;;;;;;;;;;;;;;9.32;100.00;98540.78;5078419;28;19955;-59
2022/02/15 11:35:53;;;;;;;;;;;;;;;8.42;100.00;98542.00;5062420;28;19916;-61
2022/02/15 11:38:20;;;;;;;;;;;;;;;9.10;100.00;98527.84;5086724;28;20337;-62
2022/02/15 11:44:10;;;;;;;;;;;;;;;8.93;100.00;98532.69;5084536;28;20433;-62
2022/02/15 11:46:40;;;;;;;;;;;;;;;8.82;100.00;98539.91;5084543;28;19931;-62
2022/02/15 11:49:09;;;;;;;;;;;;;;;9.47;100.00;98529.16;5087475;28;19912;-62
2022/02/15 11:51:34;;;;;;;;;;;;;;;8.90;100.00;98522.53;5069312;28;19920;-62
2022/02/15 11:54:01;;;;;;;;;;;;;;;8.91;100.00;98530.16;5061651;28;20431;-62
2022/02/15 11:56:27;;;;;;;;;;;;;;;8.36;100.00;98537.84;5087302;28;20300;-62
2022/02/15 11:58:52;;;;;;;;;;;;;;;8.49;100.00;98537.53;5089310;28;19938;-61
2022/02/15 12:01:24;;;;;;;;;;;;;;;9.10;100.00;98525.28;5089043;28;20371;-61
2022/02/15 12:03:51;;;;;;;;;;;;;;;8.67;100.00;98534.38;5089995;28;19916;-61
2022/02/15 12:06:17;;;;;;;;;;;;;;;9.13;100.00;98530.31;5088686;28;19916;-62
2022/02/15 12:08:52;;;;;;;;;;;;;;;8.35;100.00;98536.19;5090171;28;19962;-61
2022/02/15 12:11:17;;;;;;;;;;;;;;;8.96;100.00;98530.88;5071120;28;20004;-61
2022/02/15 12:13:43;;;;;;;;;;;;;;;9.08;100.00;98531.38;5089469;28;19952;-61
2022/02/15 12:16:08;;;;;;;;;;;;;;;8.37;100.00;98525.91;5071529;28;19987;-61
2022/02/15 12:18:36;;;;;;;;;;;;;;;8.29;100.00;98527.84;5071334;28;19920;-61
2022/02/15 12:21:02;;;;;;;;;;;;;;;8.32;100.00;98531.13;5089920;28;20377;-61
2022/02/15 12:29:47;;;;;;;;;;;;;;;9.23;100.00;98506.88;5088305;28;20006;-61
2022/02/15 12:32:16;;;;;;;;;;;;;;;8.88;100.00;98508.91;5090066;28;19911;-62
2022/02/15 12:34:45;;;;;;;;;;;;;;;8.68;100.00;98512.13;5071003;28;20377;-62
2022/02/15 12:37:16;;;;;;;;;;;;;;;8.99;100.00;98506.81;5089518;28;20010;-61
2022/02/15 12:39:41;;;;;;;;;;;;;;;9.37;100.00;98504.66;5071419;28;19912;-62
2022/02/15 12:42:13;;;;;;;;;;;;;;;8.82;100.00;98520.19;5077283;28;20243;-62
2022/02/15 12:44:39;;;;;;;;;;;;;;;8.68;100.00;98512.94;5074530;28;20343;-61
2022/02/15 12:47:05;;;;;;;;;;;;;;;9.64;100.00;98497.69;5086121;28;19969;-62
2022/02/15 12:49:30;;;;;;;;;;;;;;;8.78;100.00;98498.94;5084669;28;19923;-61
2022/02/15 12:51:55;;;;;;;;;;;;;;;8.82;100.00;98503.97;5087196;28;20365;-62
2022/02/15 12:54:21;;;;;;;;;;;;;;;9.64;100.00;98490.81;5068213;28;19930;-60
2022/02/15 12:56:46;;;;;;;;;;;;;;;9.42;100.00;98495.06;5066914;28;19916;-63
2022/02/15 12:59:16;;;;;;;;;;;;;;;9.15;100.00;98496.88;5086282;28;20026;-60
2022/02/15 13:01:41;;;;;;;;;;;;;;;9.34;100.00;98497.06;5085660;28;19916;-59
2022/02/15 13:04:14;;;;;;;;;;;;;;;9.81;100.00;98491.94;5086292;28;19943;-62
2022/02/15 13:06:39;;;;;;;;;;;;;;;9.52;100.00;98488.69;5084331;28;19946;-62
2022/02/15 13:09:12;;;;;;;;;;;;;;;9.91;100.00;98488.13;5083237;28;19920;-62
2022/02/15 13:11:56;;;;;;;;;;;;;;;9.62;100.00;98476.34;5084681;28;20286;-62
2022/02/15 13:14:27;;;;;;;;;;;;;;;10.43;100.00;98472.44;5082635;28;19928;-62
2022/02/15 13:16:57;;;;;;;;;;;;;;;9.58;100.00;98465.34;5084591;28;19925;-62
2022/02/15 13:19:32;;;;;;;;;;;;;;;9.31;100.00;98462.03;5083298;28;20011;-62
2022/02/15 13:21:57;;;;;;;;;;;;;;;9.96;100.00;98455.34;5082960;28;19920;-61
2022/02/15 13:24:22;;;;;;;;;;;;;;;10.55;100.00;98453.91;5084915;28;19920;-61
2022/02/15 13:26:48;;;;;;;;;;;;;;;9.62;100.00;98446.34;5066814;28;20234;-60
2022/02/15 13:29:31;;;;;;;;;;;;;;;10.05;100.00;98434.41;5066802;28;19959;-61
2022/02/15 13:31:58;;;;;;;;;;;;;;;9.20;100.00;98431.56;5048920;28;19924;-61
2022/02/15 13:34:26;;;;;;;;;;;;;;;9.61;100.00;98444.66;5085184;28;19978;-61
2022/02/15 13:36:56;;;;;;;;;;;;;;;10.21;100.00;98429.50;5085141;28;20006;-61
2022/02/15 13:39:21;;;;;;;;;;;;;;;9.86;100.00;98433.47;5064603;28;19966;-61
2022/02/15 13:41:48;;;;;;;;;;;;;;;9.31;100.00;98420.09;5083508;28;20472;-60
2022/02/15 13:44:13;;;;;;;;;;;;;;;9.71;100.00;98419.44;5081190;28;19928;-60
2022/02/15 13:46:40;;;;;;;;;;;;;;;9.69;100.00;98410.09;5066651;28;20330;-60
2022/02/15 13:49:06;;;;;;;;;;;;;;;9.17;100.00;98408.56;5066013;28;20377;-61
2022/02/15 13:51:31;;;;;;;;;;;;;;;9.78;100.00;98420.03;5083015;28;19977;-61
2022/02/15 13:53:57;;;;;;;;;;;;;;;9.44;100.00;98421.28;5049227;28;20306;-61
2022/02/15 13:56:23;;;;;;;;;;;;;;;8.76;100.00;98423.69;5065836;28;19989;-59
2022/02/15 13:58:48;;;;;;;;;;;;;;;9.27;100.00;98421.09;5048271;28;20318;-61